Time;durP1;ratioP1;P1;durP2;ratioP2;P2;SDS_P1;SDS_P2;PMS_P1;PMS_P2;Temp;Humidity;BMP_temperature;BMP_pressure;BME280_temperature;BME280_humidity;BME280_pressure;Samples;Min_cycle;Max_cycle;Signal;HPM_P1;HPM_P2
2023/04/30 00:01:26;;;;;;;0.80;0.80;;;5.80;99.90;;;;;;4945902;28;20047;-62
2023/04/30 00:03:53;;;;;;;0.95;0.93;;;5.80;99.90;;;;;;4949697;28;20069;-62
2023/04/30 00:06:20;;;;;;;1.27;0.75;;;5.80;99.90;;;;;;4945579;28;20083;-67
2023/04/30 00:08:47;;;;;;;1.38;0.55;;;5.80;99.90;;;;;;4951577;28;20051;-67
2023/04/30 00:11:14;;;;;;;3.03;0.70;;;5.80;99.90;;;;;;4942418;28;20441;-62
2023/04/30 00:13:41;;;;;;;2.50;1.10;;;5.90;99.90;;;;;;4962819;28;20813;-62
2023/04/30 00:16:09;;;;;;;1.05;0.68;;;5.90;99.90;;;;;;4942962;28;20054;-62
2023/04/30 00:18:37;;;;;;;4.88;0.43;;;5.90;99.90;;;;;;4944067;28;20059;-65
2023/04/30 00:21:04;;;;;;;3.92;0.85;;;5.90;99.90;;;;;;4937708;28;20143;-69
2023/04/30 00:23:31;;;;;;;1.23;0.70;;;5.90;99.90;;;;;;4937382;28;20058;-64
2023/04/30 00:25:57;;;;;;;0.80;0.50;;;5.90;99.90;;;;;;4942363;28;20051;-65
2023/04/30 00:28:24;;;;;;;1.85;0.90;;;5.90;99.90;;;;;;4943282;28;20047;-62
2023/04/30 00:30:51;;;;;;;0.60;0.60;;;5.90;99.90;;;;;;4939771;28;20051;-63
2023/04/30 00:33:18;;;;;;;1.27;0.98;;;5.90;99.90;;;;;;4948121;28;20394;-65
2023/04/30 00:35:46;;;;;;;1.45;0.93;;;5.90;99.90;;;;;;4939464;28;20143;-63
2023/04/30 00:38:13;;;;;;;1.13;0.80;;;5.80;99.90;;;;;;4960906;28;20441;-65
2023/04/30 00:40:43;;;;;;;2.30;1.38;;;5.80;99.90;;;;;;4944613;28;20059;-62
2023/04/30 00:43:09;;;;;;;1.05;0.50;;;5.80;99.90;;;;;;4941489;28;20145;-63
2023/04/30 00:45:36;;;;;;;0.70;0.70;;;5.70;99.90;;;;;;4942880;28;20241;-67
2023/04/30 00:48:03;;;;;;;1.80;0.73;;;5.60;99.90;;;;;;4947497;28;20446;-62
2023/04/30 00:50:31;;;;;;;1.38;0.65;;;5.50;99.90;;;;;;4944135;28;20916;-67
2023/04/30 00:52:58;;;;;;;2.22;0.55;;;5.50;99.90;;;;;;4943769;28;20138;-65
2023/04/30 00:55:25;;;;;;;1.85;0.98;;;5.50;99.90;;;;;;4957190;28;20155;-62
2023/04/30 00:57:53;;;;;;;0.90;0.60;;;5.50;99.90;;;;;;4955402;28;20114;-66
2023/04/30 01:00:21;;;;;;;1.50;0.90;;;5.50;99.90;;;;;;4944533;28;20081;-67
2023/04/30 01:02:48;;;;;;;0.77;0.77;;;5.50;99.90;;;;;;4948522;28;20047;-63
2023/04/30 01:05:15;;;;;;;0.77;0.73;;;5.50;99.90;;;;;;4943733;28;20055;-63
2023/04/30 01:07:45;;;;;;;1.15;0.65;;;5.50;99.90;;;;;;4947829;28;20043;-63
2023/04/30 01:10:13;;;;;;;2.35;0.60;;;5.40;99.90;;;;;;4964692;28;20589;-73
2023/04/30 01:13:00;;;;;;;0.93;0.90;;;5.40;99.90;;;;;;4935785;28;20097;-63
2023/04/30 01:15:41;;;;;;;0.70;0.63;;;5.40;99.90;;;;;;4929381;29;20560;-69
2023/04/30 01:18:17;;;;;;;3.17;0.98;;;5.40;99.90;;;;;;4932389;29;20199;-65
2023/04/30 01:20:51;;;;;;;2.65;0.73;;;5.40;99.90;;;;;;4929354;29;20578;-71
2023/04/30 01:23:31;;;;;;;1.20;1.10;;;5.40;99.90;;;;;;4932776;28;20047;-72
2023/04/30 01:26:07;;;;;;;0.90;0.80;;;5.40;99.90;;;;;;4937932;28;20055;-77
2023/04/30 01:28:35;;;;;;;4.05;1.13;;;5.40;99.90;;;;;;4951027;28;20062;-65
2023/04/30 01:31:02;;;;;;;5.20;1.90;;;5.40;99.90;;;;;;4924519;29;20099;-62
2023/04/30 01:33:30;;;;;;;6.00;2.03;;;5.40;99.90;;;;;;4941195;28;20114;-65
2023/04/30 01:36:02;;;;;;;3.55;2.25;;;5.40;99.90;;;;;;4946342;28;20055;-62
2023/04/30 01:38:59;;;;;;;3.90;0.70;;;5.40;99.90;;;;;;4948740;28;20048;-62
2023/04/30 01:41:46;;;;;;;5.85;1.50;;;5.30;99.90;;;;;;4958425;28;20139;-64
2023/04/30 01:44:13;;;;;;;0.80;0.65;;;5.20;99.90;;;;;;4946515;28;20047;-66
2023/04/30 01:46:45;;;;;;;5.18;3.00;;;5.10;99.90;;;;;;4958951;28;20403;-63
2023/04/30 01:49:27;;;;;;;4.90;1.13;;;5.10;99.90;;;;;;4967132;28;20042;-61
2023/04/30 01:52:32;;;;;;;1.00;0.65;;;5.10;99.90;;;;;;4940529;28;20118;-62
2023/04/30 01:55:23;;;;;;;2.78;0.80;;;5.10;99.90;;;;;;4926633;28;20118;-62
2023/04/30 01:58:00;;;;;;;3.33;0.95;;;5.00;99.90;;;;;;4946574;28;20055;-62
2023/04/30 02:00:29;;;;;;;3.10;1.48;;;5.00;99.90;;;;;;4948015;28;20070;-62
2023/04/30 02:02:57;;;;;;;2.25;1.05;;;4.90;99.90;;;;;;4947524;28;20494;-62
2023/04/30 02:05:24;;;;;;;2.47;0.90;;;4.90;99.90;;;;;;4941432;28;20182;-68
2023/04/30 02:07:51;;;;;;;3.55;0.90;;;5.00;99.90;;;;;;4942328;28;20043;-62
2023/04/30 02:10:21;;;;;;;2.78;1.50;;;5.00;99.90;;;;;;4945498;28;20055;-64
2023/04/30 02:12:48;;;;;;;1.33;0.85;;;5.00;99.90;;;;;;4944969;28;20087;-62
2023/04/30 02:15:16;;;;;;;3.22;1.92;;;5.00;99.90;;;;;;4961322;28;20067;-72
2023/04/30 02:17:43;;;;;;;3.75;0.88;;;5.10;99.90;;;;;;4942152;28;20063;-64
2023/04/30 02:20:10;;;;;;;1.90;1.58;;;5.10;99.90;;;;;;4949583;28;20502;-66
2023/04/30 02:22:37;;;;;;;2.80;0.85;;;5.10;99.90;;;;;;4937768;28;20138;-62
2023/04/30 02:25:04;;;;;;;1.67;0.98;;;5.10;99.90;;;;;;4946458;28;20138;-62
2023/04/30 02:27:32;;;;;;;3.40;1.10;;;5.10;99.90;;;;;;4954674;28;20047;-66
2023/04/30 02:29:59;;;;;;;2.95;1.50;;;5.10;99.90;;;;;;4958492;28;20096;-66
2023/04/30 02:32:26;;;;;;;2.45;0.93;;;5.10;99.90;;;;;;4948238;28;20059;-63
2023/04/30 02:34:53;;;;;;;3.28;1.02;;;5.00;99.90;;;;;;4953303;28;20378;-64
2023/04/30 02:37:20;;;;;;;4.03;2.03;;;5.00;99.90;;;;;;4949076;28;20384;-70
2023/04/30 02:39:48;;;;;;;8.60;2.55;;;4.90;99.90;;;;;;4956490;28;20139;-62
2023/04/30 02:42:15;;;;;;;1.95;1.00;;;4.80;99.90;;;;;;4947932;28;20513;-67
2023/04/30 02:44:42;;;;;;;2.45;1.02;;;4.90;99.90;;;;;;4955227;28;20051;-63
2023/04/30 02:47:09;;;;;;;3.80;1.27;;;4.80;99.90;;;;;;4950235;28;20054;-61
2023/04/30 02:49:37;;;;;;;1.25;0.88;;;4.80;99.90;;;;;;4950484;28;20058;-62
2023/04/30 02:52:04;;;;;;;2.75;1.05;;;4.80;99.90;;;;;;4957339;28;20051;-62
2023/04/30 02:54:30;;;;;;;2.55;1.33;;;4.80;99.90;;;;;;4956091;28;20051;-63
2023/04/30 02:56:57;;;;;;;1.42;0.88;;;4.80;99.90;;;;;;4946369;28;20201;-62
2023/04/30 02:59:24;;;;;;;1.30;0.85;;;4.80;99.90;;;;;;4949594;28;20079;-62
2023/04/30 03:01:51;;;;;;;2.58;1.02;;;4.80;99.90;;;;;;4963404;28;20061;-65
2023/04/30 03:04:19;;;;;;;5.70;1.60;;;4.80;99.90;;;;;;4958942;28;20054;-65
2023/04/30 03:06:46;;;;;;;3.55;0.80;;;4.90;99.90;;;;;;4947135;28;20047;-62
2023/04/30 03:09:14;;;;;;;3.17;0.70;;;4.90;99.90;;;;;;4939747;28;20142;-62
2023/04/30 03:11:41;;;;;;;3.15;0.93;;;4.90;99.90;;;;;;4950357;28;20067;-64
2023/04/30 03:14:07;;;;;;;3.17;1.50;;;4.90;99.90;;;;;;4946308;28;20102;-62
2023/04/30 03:16:35;;;;;;;8.02;1.95;;;4.80;99.90;;;;;;4946582;28;20043;-63
2023/04/30 03:19:02;;;;;;;3.35;1.08;;;4.80;99.90;;;;;;4953409;28;20051;-66
2023/04/30 03:21:29;;;;;;;1.38;1.13;;;4.70;99.90;;;;;;4933038;28;20585;-64
2023/04/30 03:23:56;;;;;;;2.58;0.80;;;4.70;99.90;;;;;;4944581;28;20138;-63
2023/04/30 03:26:23;;;;;;;2.65;1.20;;;4.70;99.90;;;;;;4932130;28;20075;-64
2023/04/30 03:28:50;;;;;;;4.60;1.38;;;4.70;99.90;;;;;;4945891;28;20061;-66
2023/04/30 03:31:17;;;;;;;2.95;1.30;;;4.70;99.90;;;;;;4949331;28;20066;-64
2023/04/30 03:33:44;;;;;;;2.78;1.42;;;4.70;99.90;;;;;;4941509;28;20478;-63
2023/04/30 03:36:11;;;;;;;1.63;1.13;;;4.70;99.90;;;;;;4945853;28;20417;-65
2023/04/30 03:38:40;;;;;;;1.30;0.93;;;4.70;99.90;;;;;;4959271;28;20158;-72
2023/04/30 03:41:07;;;;;;;1.70;0.82;;;4.80;99.90;;;;;;4963993;28;20134;-66
2023/04/30 03:43:34;;;;;;;1.88;1.17;;;4.80;99.90;;;;;;4951069;28;20411;-63
2023/04/30 03:46:01;;;;;;;4.72;0.93;;;4.70;99.90;;;;;;4947819;28;20126;-66
2023/04/30 03:48:28;;;;;;;5.38;1.10;;;4.70;99.90;;;;;;4940781;28;20061;-64
2023/04/30 03:50:56;;;;;;;4.85;1.30;;;4.80;99.90;;;;;;4947047;28;20087;-63
2023/04/30 03:53:24;;;;;;;1.40;1.05;;;4.80;99.90;;;;;;4942150;28;20582;-67
2023/04/30 03:55:53;;;;;;;3.60;1.83;;;4.80;99.90;;;;;;4924695;29;20060;-62
2023/04/30 03:58:20;;;;;;;2.33;1.30;;;4.80;99.90;;;;;;4956149;28;20051;-70
2023/04/30 04:00:47;;;;;;;3.63;1.67;;;4.80;99.90;;;;;;4959063;28;20138;-66
2023/04/30 04:03:15;;;;;;;6.20;1.23;;;4.90;99.90;;;;;;4945023;28;20062;-65
2023/04/30 04:05:43;;;;;;;1.95;1.35;;;4.90;99.90;;;;;;4970982;28;20074;-64
2023/04/30 04:08:10;;;;;;;1.70;1.40;;;4.90;99.90;;;;;;4952103;28;20051;-67
2023/04/30 04:10:39;;;;;;;3.58;0.80;;;5.00;99.90;;;;;;4945418;28;20483;-68
2023/04/30 04:13:07;;;;;;;2.63;1.40;;;4.90;99.90;;;;;;4961897;28;20109;-69
2023/04/30 04:15:34;;;;;;;3.03;1.40;;;4.90;99.90;;;;;;4946911;28;20071;-63
2023/04/30 04:18:02;;;;;;;2.88;0.60;;;5.00;99.90;;;;;;4951938;28;20094;-67
2023/04/30 04:20:29;;;;;;;2.63;1.10;;;4.90;99.90;;;;;;4943541;28;20071;-75
2023/04/30 04:22:56;;;;;;;6.47;1.42;;;5.00;99.90;;;;;;4944125;29;20345;-66
2023/04/30 04:25:24;;;;;;;6.15;1.50;;;4.90;99.90;;;;;;4953054;28;20126;-63
2023/04/30 04:27:51;;;;;;;2.65;1.23;;;4.90;99.90;;;;;;4935494;28;20117;-68
2023/04/30 04:30:18;;;;;;;3.88;0.95;;;5.00;99.90;;;;;;4957544;28;20071;-69
2023/04/30 04:32:47;;;;;;;6.60;1.30;;;5.00;99.90;;;;;;4945938;28;20044;-63
2023/04/30 04:35:15;;;;;;;3.65;1.45;;;5.00;99.90;;;;;;4962208;28;20425;-73
2023/04/30 04:37:42;;;;;;;3.95;1.00;;;5.00;99.90;;;;;;4959461;28;20120;-63
2023/04/30 04:40:11;;;;;;;2.15;0.98;;;5.00;99.90;;;;;;4925957;28;20052;-62
2023/04/30 04:42:38;;;;;;;2.50;1.30;;;5.10;99.90;;;;;;4961983;28;20055;-64
2023/04/30 04:45:06;;;;;;;3.13;1.35;;;5.10;99.90;;;;;;4944118;28;20067;-63
2023/04/30 04:47:34;;;;;;;3.90;1.05;;;5.10;99.90;;;;;;4942386;28;20054;-62
2023/04/30 04:50:01;;;;;;;6.90;1.63;;;5.10;99.90;;;;;;4962844;28;20210;-68
2023/04/30 04:52:28;;;;;;;1.55;0.70;;;5.10;99.90;;;;;;4961553;28;20061;-63
2023/04/30 04:54:55;;;;;;;0.85;0.70;;;5.10;99.90;;;;;;4964585;28;20082;-64
2023/04/30 04:57:22;;;;;;;2.00;1.30;;;5.10;99.90;;;;;;4936349;28;20048;-65
2023/04/30 04:59:49;;;;;;;1.23;1.13;;;5.10;99.90;;;;;;4953399;28;20044;-62
2023/04/30 05:02:16;;;;;;;3.60;1.40;;;5.10;99.90;;;;;;4944279;28;20052;-66
2023/04/30 05:04:45;;;;;;;3.20;1.15;;;5.10;99.90;;;;;;4944591;28;20064;-66
2023/04/30 05:07:12;;;;;;;6.78;1.17;;;5.20;99.90;;;;;;4944590;28;20109;-63
2023/04/30 05:09:39;;;;;;;3.03;1.02;;;5.20;99.90;;;;;;4937715;28;20052;-63
2023/04/30 05:12:06;;;;;;;1.63;0.90;;;5.20;99.90;;;;;;4945540;28;20397;-63
2023/04/30 05:14:33;;;;;;;7.32;1.42;;;5.20;99.90;;;;;;4940985;28;20047;-66
2023/04/30 05:16:59;;;;;;;1.98;1.17;;;5.20;99.90;;;;;;4928350;28;20055;-64
2023/04/30 05:19:26;;;;;;;4.28;0.85;;;5.20;99.90;;;;;;4927560;28;20146;-65
2023/04/30 05:21:53;;;;;;;1.25;0.95;;;5.20;99.90;;;;;;4928051;29;20066;-64
2023/04/30 05:24:20;;;;;;;2.22;1.33;;;5.20;99.90;;;;;;4945312;28;20047;-69
2023/04/30 05:26:47;;;;;;;1.42;1.05;;;5.20;99.90;;;;;;4948985;28;20058;-67
2023/04/30 05:29:14;;;;;;;3.53;1.27;;;5.20;99.90;;;;;;4942384;28;20604;-64
2023/04/30 05:31:41;;;;;;;3.20;0.95;;;5.20;99.90;;;;;;4929801;28;20510;-65
2023/04/30 05:34:08;;;;;;;2.63;1.20;;;5.20;99.90;;;;;;4938657;28;20086;-64
2023/04/30 05:36:34;;;;;;;2.65;1.27;;;5.20;99.90;;;;;;4942394;28;20058;-64
2023/04/30 05:39:01;;;;;;;1.42;0.93;;;5.20;99.90;;;;;;4945459;28;20480;-63
2023/04/30 05:41:28;;;;;;;4.05;1.25;;;5.30;99.90;;;;;;4941219;28;20054;-68
2023/04/30 05:43:55;;;;;;;3.80;1.77;;;5.20;99.90;;;;;;4949524;28;20106;-67
2023/04/30 05:46:22;;;;;;;6.68;1.13;;;5.20;99.90;;;;;;4941284;28;20043;-62
2023/04/30 05:48:49;;;;;;;1.73;1.13;;;5.20;99.90;;;;;;4945290;28;20083;-71
2023/04/30 05:51:16;;;;;;;10.55;1.70;;;5.20;99.90;;;;;;4942242;28;20051;-65
2023/04/30 05:53:42;;;;;;;3.67;1.15;;;5.20;99.90;;;;;;4954097;28;20051;-62
2023/04/30 05:56:09;;;;;;;2.63;0.90;;;5.30;99.90;;;;;;4944545;28;20139;-69
2023/04/30 05:58:36;;;;;;;4.38;1.33;;;5.30;99.90;;;;;;4946194;28;20456;-62
2023/04/30 06:01:04;;;;;;;3.45;1.23;;;5.30;99.90;;;;;;4947662;28;20055;-64
2023/04/30 06:03:31;;;;;;;2.05;1.00;;;5.30;99.90;;;;;;4947304;28;20051;-75
2023/04/30 06:05:58;;;;;;;4.88;1.58;;;5.30;99.90;;;;;;4948983;28;20413;-63
2023/04/30 06:08:25;;;;;;;3.08;1.00;;;5.30;99.90;;;;;;4948608;28;20054;-63
2023/04/30 06:10:52;;;;;;;4.13;1.10;;;5.30;99.90;;;;;;4936302;28;20421;-67
2023/04/30 06:13:18;;;;;;;4.13;0.90;;;5.30;99.90;;;;;;4928807;29;20051;-67
2023/04/30 06:15:45;;;;;;;1.25;1.10;;;5.40;99.90;;;;;;4927765;29;20083;-62
2023/04/30 06:18:13;;;;;;;2.17;1.30;;;5.40;99.90;;;;;;4942608;28;20698;-63
2023/04/30 06:20:40;;;;;;;3.75;1.33;;;5.40;99.90;;;;;;4951132;28;20142;-63
2023/04/30 06:23:08;;;;;;;2.60;1.05;;;5.40;99.90;;;;;;4948972;28;20524;-64
2023/04/30 06:25:35;;;;;;;1.67;0.93;;;5.40;99.90;;;;;;4945311;28;20082;-68
2023/04/30 06:28:01;;;;;;;3.53;0.93;;;5.40;99.90;;;;;;4945753;28;20055;-66
2023/04/30 06:30:30;;;;;;;3.75;1.42;;;5.40;99.90;;;;;;4959814;28;20055;-62
2023/04/30 06:32:57;;;;;;;2.42;1.23;;;5.40;99.90;;;;;;4944264;28;20053;-64
2023/04/30 06:35:24;;;;;;;1.98;1.00;;;5.40;99.90;;;;;;4950422;28;20406;-65
2023/04/30 06:37:51;;;;;;;0.95;0.85;;;5.40;99.90;;;;;;4929596;28;20518;-65
2023/04/30 06:40:19;;;;;;;3.83;1.38;;;5.50;99.90;;;;;;4923823;28;20092;-67
2023/04/30 06:42:46;;;;;;;2.03;1.15;;;5.50;99.90;;;;;;4925519;29;20130;-62
2023/04/30 06:45:14;;;;;;;3.17;0.90;;;5.50;99.90;;;;;;4924266;28;20064;-63
2023/04/30 06:47:41;;;;;;;1.90;1.20;;;5.50;99.90;;;;;;4924852;29;20531;-76
2023/04/30 06:50:09;;;;;;;2.60;1.33;;;5.50;99.90;;;;;;4940329;28;20119;-62
2023/04/30 06:52:35;;;;;;;4.45;1.35;;;5.50;99.90;;;;;;4939795;28;20082;-66
2023/04/30 06:55:02;;;;;;;4.40;1.40;;;5.50;99.90;;;;;;4947789;28;20050;-73
2023/04/30 06:57:30;;;;;;;2.70;1.30;;;5.60;99.90;;;;;;4955443;28;20122;-62
2023/04/30 06:59:57;;;;;;;2.45;0.95;;;5.60;99.90;;;;;;4948497;28;20051;-66
2023/04/30 07:02:24;;;;;;;4.82;1.08;;;5.60;99.90;;;;;;4948127;28;20054;-75
2023/04/30 07:04:51;;;;;;;1.42;0.93;;;5.60;99.90;;;;;;4938678;28;20059;-62
2023/04/30 07:07:18;;;;;;;1.17;0.85;;;5.60;99.90;;;;;;4935277;28;20570;-65
2023/04/30 07:09:45;;;;;;;1.65;1.02;;;5.60;99.90;;;;;;4953088;28;20061;-69
2023/04/30 07:12:12;;;;;;;1.48;0.88;;;5.60;99.90;;;;;;4949065;28;20055;-63
2023/04/30 07:14:39;;;;;;;2.35;1.42;;;5.70;99.90;;;;;;4948053;28;20052;-67
2023/04/30 07:17:06;;;;;;;4.30;1.20;;;5.70;99.90;;;;;;4943848;28;20063;-67
2023/04/30 07:19:33;;;;;;;3.03;1.25;;;5.80;99.90;;;;;;4948398;28;20077;-62
2023/04/30 07:22:00;;;;;;;1.73;1.20;;;5.80;99.90;;;;;;4931306;29;20062;-63
2023/04/30 07:24:27;;;;;;;2.22;0.90;;;5.70;99.90;;;;;;4926787;28;20099;-66
2023/04/30 07:26:53;;;;;;;2.65;1.35;;;5.80;99.90;;;;;;4945125;28;20162;-64
2023/04/30 07:29:21;;;;;;;2.75;2.00;;;5.80;99.90;;;;;;4937676;28;20110;-66
2023/04/30 07:31:48;;;;;;;5.68;1.48;;;5.80;99.90;;;;;;4925943;29;20174;-72
2023/04/30 07:34:15;;;;;;;2.45;1.05;;;5.90;99.90;;;;;;4923636;28;20067;-65
2023/04/30 07:36:41;;;;;;;1.35;1.08;;;5.90;99.90;;;;;;4943399;28;20377;-62
2023/04/30 07:39:10;;;;;;;4.13;1.58;;;5.90;99.90;;;;;;4942197;28;20066;-69
2023/04/30 07:41:37;;;;;;;2.05;1.10;;;5.90;99.90;;;;;;4946935;28;20090;-66
2023/04/30 07:44:04;;;;;;;3.83;1.48;;;6.10;99.90;;;;;;4948605;28;20110;-65
2023/04/30 07:46:31;;;;;;;1.38;1.20;;;6.10;99.90;;;;;;4943610;28;20052;-66
2023/04/30 07:48:58;;;;;;;2.35;1.05;;;6.10;99.90;;;;;;4956549;28;20070;-63
2023/04/30 07:51:25;;;;;;;2.75;1.15;;;6.10;99.90;;;;;;4949159;28;20391;-65
2023/04/30 07:53:52;;;;;;;2.90;1.30;;;6.10;99.90;;;;;;4942226;28;20174;-76
2023/04/30 07:56:20;;;;;;;1.55;1.05;;;6.20;99.90;;;;;;4953800;28;20043;-64
2023/04/30 07:58:47;;;;;;;4.43;1.15;;;6.20;99.90;;;;;;4942837;28;20087;-67
2023/04/30 08:01:14;;;;;;;6.43;1.00;;;6.30;99.90;;;;;;4948289;28;20058;-77
2023/04/30 08:03:41;;;;;;;3.55;1.08;;;6.30;99.90;;;;;;4948031;28;20059;-65
2023/04/30 08:06:08;;;;;;;1.00;0.93;;;6.40;99.90;;;;;;4930637;29;20059;-66
2023/04/30 08:08:35;;;;;;;2.28;1.20;;;6.40;99.90;;;;;;4946495;28;20078;-66
2023/04/30 08:11:02;;;;;;;4.00;1.20;;;6.30;99.90;;;;;;4948969;28;20134;-67
2023/04/30 08:13:29;;;;;;;1.65;0.88;;;6.40;99.90;;;;;;4956775;28;20062;-65
2023/04/30 08:15:56;;;;;;;3.13;1.42;;;6.40;99.90;;;;;;4946369;28;20055;-67
2023/04/30 08:18:23;;;;;;;3.00;2.22;;;6.40;99.90;;;;;;4951815;28;20055;-65
2023/04/30 08:20:50;;;;;;;1.75;1.00;;;6.40;99.90;;;;;;4949431;28;20054;-62
2023/04/30 08:23:17;;;;;;;3.38;1.88;;;6.50;99.90;;;;;;4946868;28;20142;-65
2023/04/30 08:25:43;;;;;;;1.75;1.13;;;6.50;99.90;;;;;;4940844;28;20522;-63
2023/04/30 08:28:10;;;;;;;3.40;1.55;;;6.50;99.90;;;;;;4947947;28;20071;-63
2023/04/30 08:30:38;;;;;;;7.03;1.52;;;6.60;99.90;;;;;;4942367;28;20043;-62
2023/04/30 08:33:05;;;;;;;5.60;1.20;;;6.50;99.90;;;;;;4945725;28;20044;-62
2023/04/30 08:35:32;;;;;;;3.33;1.45;;;6.60;99.90;;;;;;4948570;28;20051;-62
2023/04/30 08:37:59;;;;;;;4.32;1.38;;;6.50;99.90;;;;;;4945443;28;20150;-72
2023/04/30 08:40:26;;;;;;;2.15;1.23;;;6.60;99.90;;;;;;4948528;28;20473;-64
2023/04/30 08:43:14;;;;;;;2.35;1.10;;;6.60;99.90;;;;;;4950378;28;20051;-63
2023/04/30 08:45:41;;;;;;;1.77;1.20;;;6.60;99.90;;;;;;4949131;28;20051;-68
2023/04/30 08:48:14;;;;;;;1.80;1.40;;;6.60;99.90;;;;;;4942162;28;20059;-65
2023/04/30 08:50:41;;;;;;;2.22;1.50;;;6.60;99.90;;;;;;4937257;28;20051;-67
2023/04/30 08:53:09;;;;;;;3.67;1.42;;;6.60;99.90;;;;;;4946659;28;20061;-63
2023/04/30 08:55:39;;;;;;;4.10;1.52;;;6.60;99.90;;;;;;4943587;28;20058;-65
2023/04/30 08:58:08;;;;;;;3.13;1.83;;;6.60;99.90;;;;;;4948038;28;20058;-66
2023/04/30 09:00:37;;;;;;;8.77;2.20;;;6.70;99.90;;;;;;4947991;28;20066;-66
2023/04/30 09:03:06;;;;;;;2.00;1.35;;;6.90;99.90;;;;;;4947280;28;20047;-62
2023/04/30 09:05:33;;;;;;;1.50;1.40;;;7.00;99.90;;;;;;4941743;28;20117;-63
2023/04/30 09:08:00;;;;;;;2.60;1.20;;;7.10;99.90;;;;;;4947209;28;20560;-66
2023/04/30 09:10:34;;;;;;;2.22;1.20;;;7.20;99.90;;;;;;4944543;28;20093;-63
2023/04/30 09:13:03;;;;;;;3.53;1.80;;;7.30;99.90;;;;;;4944192;28;20142;-63
2023/04/30 09:15:31;;;;;;;2.08;1.30;;;7.30;99.90;;;;;;4941648;28;20134;-63
2023/04/30 09:18:08;;;;;;;3.10;1.58;;;7.20;99.90;;;;;;4948839;28;20450;-69
2023/04/30 09:20:35;;;;;;;2.08;1.00;;;7.30;99.90;;;;;;4941201;28;20077;-64
2023/04/30 09:23:08;;;;;;;2.28;1.05;;;7.40;99.90;;;;;;4938833;28;20143;-70
2023/04/30 09:25:40;;;;;;;2.50;1.42;;;7.40;99.90;;;;;;4948168;28;20645;-66
2023/04/30 09:28:09;;;;;;;5.22;2.08;;;7.40;99.90;;;;;;4942143;28;20048;-62
2023/04/30 09:30:36;;;;;;;4.35;2.13;;;7.50;99.90;;;;;;4944971;28;20083;-67
2023/04/30 09:33:03;;;;;;;2.38;1.40;;;7.50;99.90;;;;;;4942565;28;20051;-63
2023/04/30 09:35:35;;;;;;;2.60;1.25;;;7.60;99.90;;;;;;4937620;28;20056;-65
2023/04/30 09:38:03;;;;;;;2.90;1.55;;;7.50;99.90;;;;;;4940720;28;20063;-63
2023/04/30 09:40:41;;;;;;;1.23;0.93;;;7.60;99.90;;;;;;4944690;28;20158;-63
2023/04/30 09:43:08;;;;;;;3.17;1.13;;;7.60;99.90;;;;;;4946942;28;20042;-64
2023/04/30 09:45:40;;;;;;;1.48;1.20;;;7.80;99.90;;;;;;4946156;28;20465;-66
2023/04/30 09:48:10;;;;;;;2.63;1.25;;;7.80;99.90;;;;;;4944136;28;20079;-64
2023/04/30 09:50:44;;;;;;;4.13;1.17;;;7.70;99.90;;;;;;4934786;28;20055;-63
2023/04/30 09:53:13;;;;;;;3.08;1.33;;;7.80;99.90;;;;;;4942304;28;20051;-69
2023/04/30 09:55:48;;;;;;;4.20;1.60;;;7.90;99.90;;;;;;4948711;28;20218;-63
2023/04/30 09:58:17;;;;;;;6.72;1.58;;;7.90;99.90;;;;;;4942470;28;20430;-63
2023/04/30 10:00:49;;;;;;;3.47;1.60;;;8.00;99.90;;;;;;4931566;28;20074;-70
2023/04/30 10:03:16;;;;;;;2.20;1.77;;;8.10;99.90;;;;;;4949199;28;20051;-66
2023/04/30 10:05:48;;;;;;;2.17;1.77;;;8.10;99.90;;;;;;4943981;28;20059;-65
2023/04/30 10:08:20;;;;;;;1.73;1.20;;;8.20;99.90;;;;;;4940551;28;20101;-65
2023/04/30 10:10:52;;;;;;;6.07;1.38;;;8.30;99.90;;;;;;4942399;28;20538;-70
2023/04/30 10:13:20;;;;;;;1.83;1.20;;;8.30;99.90;;;;;;4951600;28;20062;-68
2023/04/30 10:15:53;;;;;;;2.35;1.30;;;8.50;99.90;;;;;;4943114;28;20048;-69
2023/04/30 10:18:28;;;;;;;3.35;2.00;;;8.70;99.90;;;;;;4945110;28;20132;-72
2023/04/30 10:20:56;;;;;;;2.33;1.10;;;8.80;99.90;;;;;;4941831;28;20126;-65
2023/04/30 10:23:23;;;;;;;2.65;1.02;;;8.80;99.90;;;;;;4939352;28;20493;-62
2023/04/30 10:25:51;;;;;;;2.65;1.27;;;8.60;99.90;;;;;;4931084;28;20780;-65
2023/04/30 10:28:18;;;;;;;1.42;1.00;;;8.50;99.90;;;;;;4929350;28;20134;-66
2023/04/30 10:30:46;;;;;;;3.22;1.35;;;8.50;99.90;;;;;;4923560;29;20055;-68
2023/04/30 10:33:26;;;;;;;4.95;3.38;;;8.50;99.90;;;;;;4926936;29;20051;-66
2023/04/30 10:35:59;;;;;;;1.60;1.02;;;8.70;99.90;;;;;;4940462;28;20083;-61
2023/04/30 10:38:29;;;;;;;2.30;1.77;;;8.70;99.90;;;;;;4939198;28;20088;-65
2023/04/30 10:41:00;;;;;;;1.42;1.20;;;8.70;99.90;;;;;;4947454;28;20083;-70
2023/04/30 10:43:29;;;;;;;3.63;1.33;;;8.70;99.90;;;;;;4943985;28;20051;-65
2023/04/30 10:45:57;;;;;;;3.45;1.45;;;9.00;99.90;;;;;;4942683;28;20362;-62
2023/04/30 10:48:25;;;;;;;3.00;0.98;;;9.10;99.90;;;;;;4942216;28;20420;-65
2023/04/30 10:50:55;;;;;;;3.25;1.83;;;9.20;99.90;;;;;;4942393;28;20051;-62
2023/04/30 10:53:25;;;;;;;1.38;1.05;;;9.30;99.90;;;;;;4948874;28;20067;-66
2023/04/30 10:55:53;;;;;;;2.75;1.30;;;9.30;99.90;;;;;;4945189;28;20051;-68
2023/04/30 10:58:23;;;;;;;2.85;1.30;;;9.20;99.90;;;;;;4950239;28;20148;-63
2023/04/30 11:00:59;;;;;;;3.90;1.30;;;9.00;99.90;;;;;;4936549;28;20122;-65
2023/04/30 11:03:31;;;;;;;3.65;1.85;;;8.90;99.90;;;;;;4940064;28;20458;-66
2023/04/30 11:06:02;;;;;;;1.77;1.27;;;9.00;99.90;;;;;;4944044;28;20063;-65
2023/04/30 11:08:37;;;;;;;3.25;1.33;;;9.20;99.90;;;;;;4943046;28;20060;-67
2023/04/30 11:11:04;;;;;;;4.97;1.63;;;9.20;99.90;;;;;;4947179;28;20146;-63
2023/04/30 11:13:44;;;;;;;1.38;0.90;;;9.20;99.90;;;;;;4949921;28;20138;-68
2023/04/30 11:16:11;;;;;;;1.33;1.10;;;9.30;99.90;;;;;;4947887;28;20154;-64
2023/04/30 11:18:44;;;;;;;2.63;1.17;;;9.40;99.90;;;;;;4944223;28;20456;-64
2023/04/30 11:21:13;;;;;;;7.07;2.08;;;9.50;99.90;;;;;;4947613;28;20079;-65
2023/04/30 11:23:42;;;;;;;1.90;1.48;;;9.50;99.90;;;;;;4947596;28;20039;-63
2023/04/30 11:26:09;;;;;;;4.38;1.40;;;9.50;99.90;;;;;;4955405;28;20126;-69
2023/04/30 11:28:37;;;;;;;1.90;1.48;;;9.40;99.90;;;;;;4947347;28;20047;-65
2023/04/30 11:31:04;;;;;;;3.58;2.05;;;9.30;99.90;;;;;;4947213;28;20051;-65
2023/04/30 11:33:32;;;;;;;1.83;1.02;;;9.30;99.90;;;;;;4943890;28;20051;-63
2023/04/30 11:36:00;;;;;;;5.15;1.40;;;9.20;99.90;;;;;;4939797;28;20075;-63
2023/04/30 11:38:35;;;;;;;1.05;0.88;;;9.20;99.90;;;;;;4934574;28;20082;-66
2023/04/30 11:41:03;;;;;;;4.25;1.17;;;9.10;99.90;;;;;;4944745;28;20157;-72
2023/04/30 11:43:32;;;;;;;1.38;1.00;;;9.10;99.90;;;;;;4951034;28;20051;-62
2023/04/30 11:46:09;;;;;;;1.27;0.98;;;9.20;99.90;;;;;;4924190;29;20143;-64
2023/04/30 11:48:41;;;;;;;2.30;1.25;;;9.40;99.90;;;;;;4937514;28;20056;-63
2023/04/30 11:51:19;;;;;;;1.85;1.00;;;9.50;99.90;;;;;;4925581;29;20090;-64
2023/04/30 11:53:48;;;;;;;2.42;1.27;;;9.50;99.90;;;;;;4937633;28;20055;-66
2023/04/30 11:56:23;;;;;;;1.48;1.30;;;9.60;99.90;;;;;;4938463;28;20047;-61
2023/04/30 11:58:56;;;;;;;1.25;1.15;;;9.80;99.90;;;;;;4941081;28;20363;-71
2023/04/30 12:01:27;;;;;;;1.25;1.15;;;9.60;99.90;;;;;;4944644;28;20493;-65
2023/04/30 12:03:56;;;;;;;1.20;1.02;;;9.60;99.90;;;;;;4942950;28;20054;-63
2023/04/30 12:06:26;;;;;;;2.35;0.95;;;9.70;99.90;;;;;;4942404;28;20509;-70
2023/04/30 12:08:58;;;;;;;0.95;0.90;;;9.70;99.90;;;;;;4945066;28;20063;-60
2023/04/30 12:11:26;;;;;;;3.28;1.08;;;9.60;99.90;;;;;;4944443;28;20474;-71
2023/04/30 12:13:57;;;;;;;1.05;0.88;;;9.60;99.90;;;;;;4941076;28;20581;-63
2023/04/30 12:16:24;;;;;;;4.13;2.05;;;9.70;99.90;;;;;;4947694;28;20405;-64
2023/04/30 12:18:51;;;;;;;3.00;1.48;;;9.70;99.90;;;;;;4956879;28;20051;-71
2023/04/30 12:21:21;;;;;;;2.80;1.38;;;9.70;99.90;;;;;;4948830;28;20397;-69
2023/04/30 12:23:49;;;;;;;1.70;1.02;;;9.70;99.90;;;;;;4947722;28;20134;-71
2023/04/30 12:26:16;;;;;;;3.17;1.73;;;9.80;99.90;;;;;;4947530;28;20053;-65
2023/04/30 12:28:47;;;;;;;4.80;1.33;;;10.00;99.90;;;;;;4946560;28;20142;-67
2023/04/30 12:31:16;;;;;;;;;;;9.90;99.90;;;;;;4950687;28;20497;-63
2023/04/30 12:33:43;;;;;;;1.40;1.23;;;9.90;99.90;;;;;;4945354;28;20059;-66
2023/04/30 12:36:10;;;;;;;0.98;0.98;;;9.90;99.90;;;;;;4961216;28;20148;-67
2023/04/30 12:38:42;;;;;;;0.90;0.70;;;9.90;99.90;;;;;;4943015;28;20406;-67
2023/04/30 12:41:14;;;;;;;1.77;1.30;;;9.90;99.90;;;;;;4947784;28;20051;-64
2023/04/30 12:43:41;;;;;;;1.88;1.25;;;9.90;99.90;;;;;;4945137;28;20065;-66
2023/04/30 12:46:07;;;;;;;1.15;0.75;;;9.90;99.90;;;;;;4941924;28;20047;-65
2023/04/30 12:48:46;;;;;;;1.60;0.70;;;9.90;99.90;;;;;;4940434;28;20077;-66
2023/04/30 12:51:18;;;;;;;1.33;0.85;;;10.10;99.90;;;;;;4940092;28;20055;-60
2023/04/30 12:53:45;;;;;;;1.80;1.60;;;10.40;99.90;;;;;;4965555;28;20483;-61
2023/04/30 12:56:15;;;;;;;1.13;0.52;;;10.50;99.90;;;;;;4940982;28;20066;-62
2023/04/30 12:58:48;;;;;;;1.17;1.00;;;10.40;99.90;;;;;;4942901;28;20073;-63
2023/04/30 13:01:21;;;;;;;1.67;0.85;;;10.40;99.90;;;;;;4939444;28;20101;-66
2023/04/30 13:03:49;;;;;;;1.25;0.90;;;10.20;99.90;;;;;;4946084;28;20080;-60
2023/04/30 13:06:17;;;;;;;1.40;0.80;;;10.30;99.90;;;;;;4938068;28;20047;-67